Aqua, PA

6:36 PM EST on December 09, 2016 (GMT -0500)
Martins CHBG Bakery | | Change Station

Elev 722 ft 39.91 °N, 77.64 °W | Updated 11 seconds ago

Partly Cloudy
Partly Cloudy
27.9 °F
Feels Like 19 °F
N
9.0
Wind Variable Wind from WSW

Today
High -- | Low -- °F
--% Chance of Precip.
Yesterday
High -- | Low -- °F
Precip. -- in
Pressure 30.43 in
Visibility 10.0 miles
Clouds Mostly Cloudy 4700 ft
Windchill 19 °F
Dew Point 18 °F
Humidity 66%
Rainfall 0.00 in
Snow Depth Not available.
7:20 AM 4:45 PM
Waxing Gibbous, 78% visible
METAR KHGR 092253Z 29011KT 10SM BKN047 M01/M10 A3037 RMK AO2 SLP303 T10111100
Pressure 30.43 in
Visibility 10.0 miles
Clouds Mostly Cloudy 4700 ft
Windchill 19 °F
Dew Point 18 °F
Humidity 66%
Rainfall 0.00 in
Snow Depth Not available.
7:20 AM 4:45 PM
Waxing Gibbous, 78% visible
METAR KHGR 092253Z 29011KT 10SM BKN047 M01/M10 A3037 RMK AO2 SLP303 T10111100

10-Day Weather Forecast

Almanac

Astronomy

Dec. 09, 2016 Rise Set
Actual Time
Civil Twilight
Nautical Twilight
Astronomical Twilight
Moon
Length of Visible Light
Length of Day
Tomorrow will be .
, % of the Moon is Illuminated

Today's Extremes

State Highs State Lows

Community

WunderPhotos

Upload Photos

1,956,535 photos uploaded!

WunderBlog® & News

Nearby

Air Quality

  Air Quality AQ Index Pollutant
Not available.

Snow Depth

Station Depth Elevation

Earthquake Activity

City Distance Mag. Time & Date
Minimum magnitude displayed is 2.5.

Coastal Water Temperatures

Place Temperature

Stations

Nearby Weather Stations

Station Location Temp. Windchill Dew Point Humidity Wind Precip. Elev Updated Type
                   

Watches & Warnings

There are currently no watches in effect.